Terminal Aerodrome Forecast
Issued by NWS

Home | Current Version | Previous Version | Text Only | Print | Product List | Glossary On
Versions: 1 2 3 4 5 6 7 8 9 10 11 12
625
FTUS42 KTAE 290540
TAFDHN
TAF
KDHN 290540Z 2906/3006 VRB03KT P6SM SCT100 BKN250
     FM291400 36006KT P6SM BKN060
     FM300100 30003KT P6SM SCT050 SCT250=

USA.gov is the U.S. government's official web portal to all federal, state and local government web resources and services.